sensor_id;sensor_type;location;lat;lon;timestamp;P1;durP1;ratioP1;P2;durP2;ratioP2
16977;SDS011;8605;52.548;4.918;2023-04-24T00:03:31;0.50;;;0.50;;
16977;SDS011;8605;52.548;4.918;2023-04-24T00:08:53;0.30;;;0.30;;
16977;SDS011;8605;52.548;4.918;2023-04-24T00:13:58;0.30;;;0.30;;
16977;SDS011;8605;52.548;4.918;2023-04-24T00:19:00;0.40;;;0.40;;
16977;SDS011;8605;52.548;4.918;2023-04-24T00:24:03;0.30;;;0.30;;
16977;SDS011;8605;52.548;4.918;2023-04-24T00:29:08;0.30;;;0.30;;
16977;SDS011;8605;52.548;4.918;2023-04-24T00:34:31;1.40;;;1.10;;
16977;SDS011;8605;52.548;4.918;2023-04-24T00:39:34;0.25;;;0.25;;
16977;SDS011;8605;52.548;4.918;2023-04-24T00:44:40;0.30;;;0.30;;
16977;SDS011;8605;52.548;4.918;2023-04-24T00:49:43;0.30;;;0.30;;
16977;SDS011;8605;52.548;4.918;2023-04-24T00:54:46;0.30;;;0.30;;
16977;SDS011;8605;52.548;4.918;2023-04-24T01:00:07;0.25;;;0.25;;
16977;SDS011;8605;52.548;4.918;2023-04-24T01:05:13;0.40;;;0.40;;
16977;SDS011;8605;52.548;4.918;2023-04-24T01:10:18;0.40;;;0.40;;
16977;SDS011;8605;52.548;4.918;2023-04-24T01:15:23;0.40;;;0.40;;
16977;SDS011;8605;52.548;4.918;2023-04-24T01:20:28;0.40;;;0.40;;
16977;SDS011;8605;52.548;4.918;2023-04-24T01:25:43;0.80;;;0.80;;
16977;SDS011;8605;52.548;4.918;2023-04-24T01:30:46;0.30;;;0.30;;
16977;SDS011;8605;52.548;4.918;2023-04-24T01:36:02;0.40;;;0.40;;
16977;SDS011;8605;52.548;4.918;2023-04-24T01:41:07;0.30;;;0.30;;
16977;SDS011;8605;52.548;4.918;2023-04-24T01:46:12;0.30;;;0.30;;
16977;SDS011;8605;52.548;4.918;2023-04-24T01:51:17;0.60;;;0.60;;
16977;SDS011;8605;52.548;4.918;2023-04-24T01:56:22;0.30;;;0.30;;
16977;SDS011;8605;52.548;4.918;2023-04-24T02:01:33;0.87;;;0.87;;
16977;SDS011;8605;52.548;4.918;2023-04-24T02:06:37;0.60;;;0.60;;
16977;SDS011;8605;52.548;4.918;2023-04-24T02:11:41;0.80;;;0.50;;
16977;SDS011;8605;52.548;4.918;2023-04-24T02:16:54;0.50;;;0.50;;
16977;SDS011;8605;52.548;4.918;2023-04-24T02:21:57;0.40;;;0.40;;
16977;SDS011;8605;52.548;4.918;2023-04-24T02:27:15;0.50;;;0.50;;
16977;SDS011;8605;52.548;4.918;2023-04-24T02:32:18;0.50;;;0.50;;
16977;SDS011;8605;52.548;4.918;2023-04-24T02:37:21;1.00;;;0.70;;
16977;SDS011;8605;52.548;4.918;2023-04-24T02:42:32;0.40;;;0.40;;
16977;SDS011;8605;52.548;4.918;2023-04-24T02:47:35;0.30;;;0.30;;
16977;SDS011;8605;52.548;4.918;2023-04-24T02:52:39;0.30;;;0.30;;
16977;SDS011;8605;52.548;4.918;2023-04-24T02:57:44;0.30;;;0.30;;
16977;SDS011;8605;52.548;4.918;2023-04-24T03:02:46;0.47;;;0.47;;
16977;SDS011;8605;52.548;4.918;2023-04-24T03:08:07;0.35;;;0.35;;
16977;SDS011;8605;52.548;4.918;2023-04-24T03:13:11;0.30;;;0.30;;
16977;SDS011;8605;52.548;4.918;2023-04-24T03:18:33;0.55;;;0.55;;
16977;SDS011;8605;52.548;4.918;2023-04-24T03:23:37;0.57;;;0.57;;
16977;SDS011;8605;52.548;4.918;2023-04-24T03:28:42;0.50;;;0.50;;
16977;SDS011;8605;52.548;4.918;2023-04-24T03:33:56;0.60;;;0.60;;
16977;SDS011;8605;52.548;4.918;2023-04-24T03:38:59;0.30;;;0.30;;
16977;SDS011;8605;52.548;4.918;2023-04-24T03:44:07;0.30;;;0.30;;
16977;SDS011;8605;52.548;4.918;2023-04-24T03:49:11;0.77;;;0.77;;
16977;SDS011;8605;52.548;4.918;2023-04-24T03:54:17;0.60;;;0.50;;
16977;SDS011;8605;52.548;4.918;2023-04-24T03:59:21;0.50;;;0.50;;
16977;SDS011;8605;52.548;4.918;2023-04-24T04:04:38;0.40;;;0.40;;
16977;SDS011;8605;52.548;4.918;2023-04-24T04:09:43;0.40;;;0.40;;
16977;SDS011;8605;52.548;4.918;2023-04-24T04:14:47;0.40;;;0.40;;
16977;SDS011;8605;52.548;4.918;2023-04-24T04:19:50;0.40;;;0.40;;
16977;SDS011;8605;52.548;4.918;2023-04-24T04:24:55;1.80;;;1.15;;
16977;SDS011;8605;52.548;4.918;2023-04-24T04:30:01;0.52;;;0.52;;
16977;SDS011;8605;52.548;4.918;2023-04-24T04:35:13;0.30;;;0.30;;
16977;SDS011;8605;52.548;4.918;2023-04-24T04:40:16;1.30;;;1.00;;
16977;SDS011;8605;52.548;4.918;2023-04-24T04:45:27;0.70;;;0.70;;
16977;SDS011;8605;52.548;4.918;2023-04-24T04:50:48;0.53;;;0.53;;
16977;SDS011;8605;52.548;4.918;2023-04-24T04:55:53;0.45;;;0.45;;
16977;SDS011;8605;52.548;4.918;2023-04-24T05:01:02;1.30;;;0.60;;
16977;SDS011;8605;52.548;4.918;2023-04-24T05:06:11;0.40;;;0.40;;
16977;SDS011;8605;52.548;4.918;2023-04-24T05:11:15;0.20;;;0.20;;
16977;SDS011;8605;52.548;4.918;2023-04-24T05:16:19;0.70;;;0.70;;
16977;SDS011;8605;52.548;4.918;2023-04-24T05:21:25;0.77;;;0.73;;
16977;SDS011;8605;52.548;4.918;2023-04-24T05:26:29;1.75;;;1.48;;
16977;SDS011;8605;52.548;4.918;2023-04-24T05:31:34;117.43;;;46.20;;
16977;SDS011;8605;52.548;4.918;2023-04-24T05:36:38;129.77;;;49.88;;
16977;SDS011;8605;52.548;4.918;2023-04-24T05:41:45;140.98;;;54.97;;
16977;SDS011;8605;52.548;4.918;2023-04-24T05:46:49;118.35;;;47.83;;
16977;SDS011;8605;52.548;4.918;2023-04-24T05:51:52;108.20;;;44.33;;
16977;SDS011;8605;52.548;4.918;2023-04-24T05:56:56;101.28;;;44.47;;
16977;SDS011;8605;52.548;4.918;2023-04-24T06:02:10;103.57;;;44.22;;
16977;SDS011;8605;52.548;4.918;2023-04-24T06:07:21;89.57;;;38.10;;
16977;SDS011;8605;52.548;4.918;2023-04-24T06:12:24;67.97;;;33.45;;
16977;SDS011;8605;52.548;4.918;2023-04-24T06:17:35;64.07;;;30.70;;
16977;SDS011;8605;52.548;4.918;2023-04-24T06:22:38;62.85;;;29.98;;
16977;SDS011;8605;52.548;4.918;2023-04-24T06:27:43;66.90;;;30.73;;
16977;SDS011;8605;52.548;4.918;2023-04-24T06:32:59;63.67;;;30.10;;
16977;SDS011;8605;52.548;4.918;2023-04-24T06:38:19;62.90;;;30.33;;
16977;SDS011;8605;52.548;4.918;2023-04-24T06:43:22;64.20;;;30.20;;
16977;SDS011;8605;52.548;4.918;2023-04-24T06:48:26;59.63;;;27.40;;
16977;SDS011;8605;52.548;4.918;2023-04-24T06:53:29;58.30;;;26.02;;
16977;SDS011;8605;52.548;4.918;2023-04-24T06:58:34;58.75;;;26.95;;
16977;SDS011;8605;52.548;4.918;2023-04-24T07:03:38;46.97;;;24.77;;
16977;SDS011;8605;52.548;4.918;2023-04-24T07:08:41;51.15;;;24.27;;
16977;SDS011;8605;52.548;4.918;2023-04-24T07:13:45;51.97;;;25.40;;
16977;SDS011;8605;52.548;4.918;2023-04-24T07:18:49;50.57;;;24.60;;
16977;SDS011;8605;52.548;4.918;2023-04-24T07:24:09;46.58;;;22.88;;
16977;SDS011;8605;52.548;4.918;2023-04-24T07:29:12;54.40;;;23.77;;
16977;SDS011;8605;52.548;4.918;2023-04-24T07:34:19;46.50;;;17.25;;
16977;SDS011;8605;52.548;4.918;2023-04-24T07:39:22;45.73;;;15.13;;
16977;SDS011;8605;52.548;4.918;2023-04-24T07:44:25;51.30;;;14.07;;
16977;SDS011;8605;52.548;4.918;2023-04-24T07:49:47;38.65;;;12.52;;
16977;SDS011;8605;52.548;4.918;2023-04-24T07:54:50;35.37;;;11.80;;
16977;SDS011;8605;52.548;4.918;2023-04-24T07:59:55;30.77;;;10.55;;
16977;SDS011;8605;52.548;4.918;2023-04-24T08:04:59;39.80;;;11.45;;
16977;SDS011;8605;52.548;4.918;2023-04-24T08:10:02;31.73;;;9.90;;
16977;SDS011;8605;52.548;4.918;2023-04-24T08:15:22;30.48;;;11.07;;
16977;SDS011;8605;52.548;4.918;2023-04-24T08:20:27;24.38;;;8.68;;
16977;SDS011;8605;52.548;4.918;2023-04-24T08:25:30;30.23;;;9.75;;
16977;SDS011;8605;52.548;4.918;2023-04-24T08:30:33;32.00;;;9.85;;
16977;SDS011;8605;52.548;4.918;2023-04-24T08:35:37;27.08;;;8.55;;
16977;SDS011;8605;52.548;4.918;2023-04-24T08:41:01;28.13;;;8.87;;
16977;SDS011;8605;52.548;4.918;2023-04-24T08:46:04;25.92;;;8.80;;
16977;SDS011;8605;52.548;4.918;2023-04-24T08:51:13;25.13;;;8.73;;
16977;SDS011;8605;52.548;4.918;2023-04-24T08:56:17;23.02;;;7.38;;
16977;SDS011;8605;52.548;4.918;2023-04-24T09:01:20;26.10;;;7.80;;
16977;SDS011;8605;52.548;4.918;2023-04-24T09:06:37;19.83;;;7.60;;
16977;SDS011;8605;52.548;4.918;2023-04-24T09:11:41;26.70;;;7.57;;
16977;SDS011;8605;52.548;4.918;2023-04-24T09:16:44;24.87;;;7.20;;
16977;SDS011;8605;52.548;4.918;2023-04-24T09:21:48;15.50;;;6.50;;
16977;SDS011;8605;52.548;4.918;2023-04-24T09:26:56;22.35;;;6.18;;
16977;SDS011;8605;52.548;4.918;2023-04-24T09:32:17;22.00;;;7.33;;
16977;SDS011;8605;52.548;4.918;2023-04-24T09:37:34;24.43;;;6.40;;
16977;SDS011;8605;52.548;4.918;2023-04-24T09:42:38;19.58;;;6.10;;
16977;SDS011;8605;52.548;4.918;2023-04-24T09:47:41;18.95;;;6.15;;
16977;SDS011;8605;52.548;4.918;2023-04-24T09:52:45;13.00;;;5.03;;
16977;SDS011;8605;52.548;4.918;2023-04-24T09:57:50;14.02;;;5.60;;
16977;SDS011;8605;52.548;4.918;2023-04-24T10:02:54;9.65;;;4.80;;
16977;SDS011;8605;52.548;4.918;2023-04-24T10:07:59;11.13;;;3.53;;
16977;SDS011;8605;52.548;4.918;2023-04-24T10:13:04;15.20;;;4.10;;
16977;SDS011;8605;52.548;4.918;2023-04-24T10:18:08;15.55;;;4.60;;
16977;SDS011;8605;52.548;4.918;2023-04-24T10:23:25;14.95;;;4.82;;
16977;SDS011;8605;52.548;4.918;2023-04-24T10:28:29;21.40;;;4.80;;
16977;SDS011;8605;52.548;4.918;2023-04-24T10:33:34;16.53;;;4.37;;
16977;SDS011;8605;52.548;4.918;2023-04-24T10:38:39;14.77;;;3.55;;
16977;SDS011;8605;52.548;4.918;2023-04-24T10:43:44;4.68;;;2.63;;
16977;SDS011;8605;52.548;4.918;2023-04-24T10:49:03;6.82;;;2.67;;
16977;SDS011;8605;52.548;4.918;2023-04-24T10:54:22;9.00;;;3.10;;
16977;SDS011;8605;52.548;4.918;2023-04-24T10:59:26;12.47;;;3.33;;
16977;SDS011;8605;52.548;4.918;2023-04-24T11:04:30;10.35;;;3.70;;
16977;SDS011;8605;52.548;4.918;2023-04-24T11:09:36;14.83;;;3.90;;
16977;SDS011;8605;52.548;4.918;2023-04-24T11:15:00;11.63;;;3.38;;
16977;SDS011;8605;52.548;4.918;2023-04-24T11:20:04;7.83;;;2.60;;
16977;SDS011;8605;52.548;4.918;2023-04-24T11:25:28;4.72;;;2.20;;
16977;SDS011;8605;52.548;4.918;2023-04-24T11:30:33;15.97;;;5.27;;
16977;SDS011;8605;52.548;4.918;2023-04-24T11:35:39;15.00;;;5.27;;
16977;SDS011;8605;52.548;4.918;2023-04-24T11:40:44;22.88;;;5.75;;
16977;SDS011;8605;52.548;4.918;2023-04-24T11:45:48;9.73;;;3.93;;
16977;SDS011;8605;52.548;4.918;2023-04-24T11:50:51;13.77;;;4.53;;
16977;SDS011;8605;52.548;4.918;2023-04-24T11:55:55;12.80;;;4.55;;
16977;SDS011;8605;52.548;4.918;2023-04-24T12:00:58;14.02;;;4.03;;
16977;SDS011;8605;52.548;4.918;2023-04-24T12:06:05;12.32;;;4.32;;
16977;SDS011;8605;52.548;4.918;2023-04-24T12:11:11;18.95;;;6.55;;
16977;SDS011;8605;52.548;4.918;2023-04-24T12:16:14;23.20;;;6.20;;
16977;SDS011;8605;52.548;4.918;2023-04-24T12:21:17;23.10;;;6.70;;
16977;SDS011;8605;52.548;4.918;2023-04-24T12:26:24;20.42;;;6.35;;
16977;SDS011;8605;52.548;4.918;2023-04-24T12:31:28;21.77;;;6.05;;
16977;SDS011;8605;52.548;4.918;2023-04-24T12:36:34;16.08;;;5.72;;
16977;SDS011;8605;52.548;4.918;2023-04-24T12:41:39;18.80;;;6.32;;
16977;SDS011;8605;52.548;4.918;2023-04-24T12:47:13;27.17;;;7.10;;
16977;SDS011;8605;52.548;4.918;2023-04-24T12:52:16;27.60;;;6.95;;
16977;SDS011;8605;52.548;4.918;2023-04-24T12:57:20;25.50;;;7.87;;
16977;SDS011;8605;52.548;4.918;2023-04-24T13:02:23;29.35;;;8.38;;
16977;SDS011;8605;52.548;4.918;2023-04-24T13:07:27;29.33;;;8.10;;
16977;SDS011;8605;52.548;4.918;2023-04-24T13:12:52;25.90;;;7.70;;
16977;SDS011;8605;52.548;4.918;2023-04-24T13:17:54;31.85;;;9.05;;
16977;SDS011;8605;52.548;4.918;2023-04-24T13:22:57;27.85;;;8.82;;
16977;SDS011;8605;52.548;4.918;2023-04-24T13:28:02;26.17;;;9.38;;
16977;SDS011;8605;52.548;4.918;2023-04-24T13:33:06;28.17;;;9.00;;
16977;SDS011;8605;52.548;4.918;2023-04-24T13:38:29;31.73;;;9.82;;
16977;SDS011;8605;52.548;4.918;2023-04-24T13:43:33;26.98;;;9.25;;
16977;SDS011;8605;52.548;4.918;2023-04-24T13:48:36;28.67;;;8.98;;
16977;SDS011;8605;52.548;4.918;2023-04-24T13:53:39;28.52;;;8.75;;
16977;SDS011;8605;52.548;4.918;2023-04-24T13:58:44;34.28;;;9.15;;
16977;SDS011;8605;52.548;4.918;2023-04-24T14:04:07;37.33;;;10.70;;
16977;SDS011;8605;52.548;4.918;2023-04-24T14:09:10;28.35;;;9.68;;
16977;SDS011;8605;52.548;4.918;2023-04-24T14:14:15;33.73;;;9.00;;
16977;SDS011;8605;52.548;4.918;2023-04-24T14:19:20;29.27;;;8.60;;
16977;SDS011;8605;52.548;4.918;2023-04-24T14:24:23;26.20;;;8.02;;
16977;SDS011;8605;52.548;4.918;2023-04-24T14:29:48;27.65;;;8.52;;
16977;SDS011;8605;52.548;4.918;2023-04-24T14:34:51;20.40;;;8.05;;
16977;SDS011;8605;52.548;4.918;2023-04-24T14:39:54;25.67;;;8.37;;
16977;SDS011;8605;52.548;4.918;2023-04-24T14:45:18;27.20;;;9.47;;
16977;SDS011;8605;52.548;4.918;2023-04-24T14:50:21;30.52;;;9.65;;
16977;SDS011;8605;52.548;4.918;2023-04-24T14:55:25;31.37;;;8.97;;
16977;SDS011;8605;52.548;4.918;2023-04-24T15:00:29;23.33;;;8.33;;
16977;SDS011;8605;52.548;4.918;2023-04-24T15:05:32;19.95;;;7.00;;
16977;SDS011;8605;52.548;4.918;2023-04-24T15:10:36;26.17;;;8.25;;
16977;SDS011;8605;52.548;4.918;2023-04-24T15:15:40;20.73;;;7.00;;
16977;SDS011;8605;52.548;4.918;2023-04-24T15:20:56;23.58;;;7.47;;
16977;SDS011;8605;52.548;4.918;2023-04-24T15:25:59;27.77;;;7.70;;
16977;SDS011;8605;52.548;4.918;2023-04-24T15:31:04;26.13;;;7.63;;
16977;SDS011;8605;52.548;4.918;2023-04-24T15:36:07;21.70;;;7.18;;
16977;SDS011;8605;52.548;4.918;2023-04-24T15:41:10;18.57;;;7.30;;
16977;SDS011;8605;52.548;4.918;2023-04-24T15:46:33;24.95;;;7.93;;
16977;SDS011;8605;52.548;4.918;2023-04-24T15:51:36;16.70;;;4.80;;
16977;SDS011;8605;52.548;4.918;2023-04-24T15:56:39;17.87;;;5.63;;
16977;SDS011;8605;52.548;4.918;2023-04-24T16:01:44;23.92;;;5.80;;
16977;SDS011;8605;52.548;4.918;2023-04-24T16:06:47;20.58;;;7.13;;
16977;SDS011;8605;52.548;4.918;2023-04-24T16:12:05;28.60;;;7.72;;
16977;SDS011;8605;52.548;4.918;2023-04-24T16:17:10;27.23;;;8.77;;
16977;SDS011;8605;52.548;4.918;2023-04-24T16:22:15;28.50;;;9.38;;
16977;SDS011;8605;52.548;4.918;2023-04-24T16:27:18;27.52;;;7.75;;
16977;SDS011;8605;52.548;4.918;2023-04-24T16:32:23;29.92;;;8.82;;
16977;SDS011;8605;52.548;4.918;2023-04-24T16:37:41;28.13;;;8.40;;
16977;SDS011;8605;52.548;4.918;2023-04-24T16:42:44;25.40;;;9.00;;
16977;SDS011;8605;52.548;4.918;2023-04-24T16:47:49;20.95;;;8.20;;
16977;SDS011;8605;52.548;4.918;2023-04-24T16:52:52;22.73;;;7.45;;
16977;SDS011;8605;52.548;4.918;2023-04-24T16:57:55;25.27;;;7.90;;
16977;SDS011;8605;52.548;4.918;2023-04-24T17:03:17;18.70;;;5.30;;
16977;SDS011;8605;52.548;4.918;2023-04-24T17:08:21;14.20;;;4.50;;
16977;SDS011;8605;52.548;4.918;2023-04-24T17:13:24;14.18;;;5.03;;
16977;SDS011;8605;52.548;4.918;2023-04-24T17:18:28;17.33;;;5.60;;
16977;SDS011;8605;52.548;4.918;2023-04-24T17:23:32;13.05;;;5.50;;
16977;SDS011;8605;52.548;4.918;2023-04-24T17:28:52;27.37;;;7.23;;
16977;SDS011;8605;52.548;4.918;2023-04-24T17:33:57;21.50;;;7.47;;
16977;SDS011;8605;52.548;4.918;2023-04-24T17:39:00;17.13;;;6.72;;
16977;SDS011;8605;52.548;4.918;2023-04-24T17:44:04;21.07;;;7.33;;
16977;SDS011;8605;52.548;4.918;2023-04-24T17:49:08;23.42;;;8.40;;
16977;SDS011;8605;52.548;4.918;2023-04-24T17:54:31;20.13;;;6.93;;
16977;SDS011;8605;52.548;4.918;2023-04-24T17:59:34;25.50;;;6.90;;
16977;SDS011;8605;52.548;4.918;2023-04-24T18:04:38;21.50;;;6.97;;
16977;SDS011;8605;52.548;4.918;2023-04-24T18:09:43;24.42;;;8.55;;
16977;SDS011;8605;52.548;4.918;2023-04-24T18:14:46;24.77;;;6.63;;
16977;SDS011;8605;52.548;4.918;2023-04-24T18:20:04;20.20;;;7.22;;
16977;SDS011;8605;52.548;4.918;2023-04-24T18:25:09;21.00;;;7.37;;
16977;SDS011;8605;52.548;4.918;2023-04-24T18:30:12;28.50;;;6.55;;
16977;SDS011;8605;52.548;4.918;2023-04-24T18:35:17;24.77;;;7.40;;
16977;SDS011;8605;52.548;4.918;2023-04-24T18:40:20;21.25;;;6.97;;
16977;SDS011;8605;52.548;4.918;2023-04-24T18:45:43;17.87;;;6.40;;
16977;SDS011;8605;52.548;4.918;2023-04-24T18:50:47;14.90;;;5.30;;
16977;SDS011;8605;52.548;4.918;2023-04-24T18:55:50;13.20;;;5.30;;
16977;SDS011;8605;52.548;4.918;2023-04-24T19:00:53;22.13;;;6.43;;
16977;SDS011;8605;52.548;4.918;2023-04-24T19:05:57;19.87;;;6.63;;
16977;SDS011;8605;52.548;4.918;2023-04-24T19:11:11;23.17;;;6.75;;
16977;SDS011;8605;52.548;4.918;2023-04-24T19:16:14;27.57;;;8.63;;
16977;SDS011;8605;52.548;4.918;2023-04-24T19:21:21;28.20;;;10.00;;
16977;SDS011;8605;52.548;4.918;2023-04-24T19:26:24;40.45;;;11.88;;
16977;SDS011;8605;52.548;4.918;2023-04-24T19:31:30;39.28;;;12.90;;
16977;SDS011;8605;52.548;4.918;2023-04-24T19:36:48;41.67;;;11.65;;
16977;SDS011;8605;52.548;4.918;2023-04-24T19:41:51;31.13;;;8.63;;
16977;SDS011;8605;52.548;4.918;2023-04-24T19:46:55;23.85;;;8.35;;
16977;SDS011;8605;52.548;4.918;2023-04-24T19:51:59;24.50;;;8.05;;
16977;SDS011;8605;52.548;4.918;2023-04-24T19:57:03;21.77;;;7.40;;
16977;SDS011;8605;52.548;4.918;2023-04-24T20:02:20;0.32;;;0.32;;
16977;SDS011;8605;52.548;4.918;2023-04-24T20:07:25;1.42;;;1.33;;
16977;SDS011;8605;52.548;4.918;2023-04-24T20:12:28;1.90;;;1.30;;
16977;SDS011;8605;52.548;4.918;2023-04-24T20:17:31;0.40;;;0.40;;
16977;SDS011;8605;52.548;4.918;2023-04-24T20:22:35;6.40;;;1.23;;
16977;SDS011;8605;52.548;4.918;2023-04-24T20:27:56;0.85;;;0.85;;
16977;SDS011;8605;52.548;4.918;2023-04-24T20:32:59;0.68;;;0.68;;
16977;SDS011;8605;52.548;4.918;2023-04-24T20:38:04;0.60;;;0.60;;
16977;SDS011;8605;52.548;4.918;2023-04-24T20:43:07;1.58;;;1.48;;
16977;SDS011;8605;52.548;4.918;2023-04-24T20:48:11;2.45;;;1.25;;
16977;SDS011;8605;52.548;4.918;2023-04-24T20:53:32;0.30;;;0.30;;
16977;SDS011;8605;52.548;4.918;2023-04-24T20:58:35;0.40;;;0.40;;
16977;SDS011;8605;52.548;4.918;2023-04-24T21:03:38;0.80;;;0.80;;
16977;SDS011;8605;52.548;4.918;2023-04-24T21:08:43;1.33;;;0.90;;
16977;SDS011;8605;52.548;4.918;2023-04-24T21:13:45;0.63;;;0.63;;
16977;SDS011;8605;52.548;4.918;2023-04-24T21:18:49;1.00;;;1.00;;
16977;SDS011;8605;52.548;4.918;2023-04-24T21:23:53;0.88;;;0.82;;
16977;SDS011;8605;52.548;4.918;2023-04-24T21:28:56;1.30;;;0.55;;
16977;SDS011;8605;52.548;4.918;2023-04-24T21:34:06;5.50;;;1.20;;
16977;SDS011;8605;52.548;4.918;2023-04-24T21:39:11;1.52;;;1.17;;
16977;SDS011;8605;52.548;4.918;2023-04-24T21:44:14;0.60;;;0.60;;
16977;SDS011;8605;52.548;4.918;2023-04-24T21:49:17;1.00;;;1.00;;
16977;SDS011;8605;52.548;4.918;2023-04-24T21:54:21;0.60;;;0.60;;
16977;SDS011;8605;52.548;4.918;2023-04-24T21:59:43;1.70;;;0.50;;
16977;SDS011;8605;52.548;4.918;2023-04-24T22:04:46;0.57;;;0.57;;
16977;SDS011;8605;52.548;4.918;2023-04-24T22:09:50;1.63;;;1.50;;
16977;SDS011;8605;52.548;4.918;2023-04-24T22:14:53;3.40;;;1.20;;
16977;SDS011;8605;52.548;4.918;2023-04-24T22:19:56;0.70;;;0.70;;
16977;SDS011;8605;52.548;4.918;2023-04-24T22:25:18;1.45;;;1.35;;
16977;SDS011;8605;52.548;4.918;2023-04-24T22:30:21;0.70;;;0.70;;
16977;SDS011;8605;52.548;4.918;2023-04-24T22:35:24;3.20;;;1.60;;
16977;SDS011;8605;52.548;4.918;2023-04-24T22:40:28;1.30;;;1.20;;
16977;SDS011;8605;52.548;4.918;2023-04-24T22:45:31;0.70;;;0.70;;
16977;SDS011;8605;52.548;4.918;2023-04-24T22:50:53;1.52;;;1.42;;
16977;SDS011;8605;52.548;4.918;2023-04-24T22:55:57;17.70;;;3.40;;
16977;SDS011;8605;52.548;4.918;2023-04-24T23:01:00;0.30;;;0.30;;
16977;SDS011;8605;52.548;4.918;2023-04-24T23:06:04;0.50;;;0.50;;
16977;SDS011;8605;52.548;4.918;2023-04-24T23:11:09;0.57;;;0.57;;
16977;SDS011;8605;52.548;4.918;2023-04-24T23:16:28;0.40;;;0.40;;
16977;SDS011;8605;52.548;4.918;2023-04-24T23:21:31;0.80;;;0.80;;
16977;SDS011;8605;52.548;4.918;2023-04-24T23:26:35;0.73;;;0.73;;
16977;SDS011;8605;52.548;4.918;2023-04-24T23:31:38;0.50;;;0.50;;
16977;SDS011;8605;52.548;4.918;2023-04-24T23:36:42;2.60;;;1.30;;
16977;SDS011;8605;52.548;4.918;2023-04-24T23:42:03;0.90;;;0.90;;
16977;SDS011;8605;52.548;4.918;2023-04-24T23:47:08;2.50;;;2.00;;
16977;SDS011;8605;52.548;4.918;2023-04-24T23:52:10;1.42;;;1.33;;
16977;SDS011;8605;52.548;4.918;2023-04-24T23:57:15;1.75;;;1.55;;
